Terminal Aerodrome Forecast
Issued by NWS Buffalo, NY

Home | Current Version | Previous Version | Text Only | Print | Product List | Glossary On
Versions: 1 2 3 4 5 6 7 8 9 10 11 12 13 14 15 16 17 18 19 20 21 22 23 24 25
000
FTUS41 KBUF 211500 AAA
TAFROC
TAF AMD
KROC 211522Z 2115/2212 26010KT P6SM BKN022
     FM211700 25006KT P6SM VCSH BKN035 BKN250
     FM220100 VRB04KT P6SM BKN070
     FM220500 VRB03KT P6SM BKN025
     FM220700 00000KT 4SM BR BKN015=

USA.gov is the U.S. government's official web portal to all federal, state and local government web resources and services.